sensor_id;sensor_type;location;lat;lon;timestamp;pressure;altitude;pressure_sealevel;temperature;humidity
84932;BME280;75193;53.980;13.902;2024-02-21T00:01:39;101836.44;;;18.99;43.28
84932;BME280;75193;53.980;13.902;2024-02-21T00:04:04;101840.81;;;19.35;42.44
84932;BME280;75193;53.980;13.902;2024-02-21T00:06:29;101844.19;;;18.90;43.29
84932;BME280;75193;53.980;13.902;2024-02-21T00:08:55;101835.59;;;18.99;43.00
84932;BME280;75193;53.980;13.902;2024-02-21T00:11:21;101846.84;;;19.14;43.08
84932;BME280;75193;53.980;13.902;2024-02-21T00:13:47;101834.78;;;18.86;43.58
84932;BME280;75193;53.980;13.902;2024-02-21T00:16:13;101841.78;;;19.11;43.04
84932;BME280;75193;53.980;13.902;2024-02-21T00:18:40;101838.00;;;19.26;42.81
84932;BME280;75193;53.980;13.902;2024-02-21T00:21:06;101836.19;;;19.02;43.15
84932;BME280;75193;53.980;13.902;2024-02-21T00:23:32;101834.19;;;18.69;43.88
84932;BME280;75193;53.980;13.902;2024-02-21T00:25:57;101833.56;;;19.02;43.09
84932;BME280;75193;53.980;13.902;2024-02-21T00:28:23;101825.81;;;18.50;44.21
84932;BME280;75193;53.980;13.902;2024-02-21T00:30:48;101815.66;;;18.93;43.29
84932;BME280;75193;53.980;13.902;2024-02-21T00:33:16;101820.72;;;18.72;43.90
84932;BME280;75193;53.980;13.902;2024-02-21T00:35:41;101821.38;;;19.00;42.90
84932;BME280;75193;53.980;13.902;2024-02-21T00:38:07;101826.53;;;18.77;43.59
84932;BME280;75193;53.980;13.902;2024-02-21T00:40:32;101806.13;;;18.67;43.82
84932;BME280;75193;53.980;13.902;2024-02-21T00:42:58;101810.94;;;18.86;43.35
84932;BME280;75193;53.980;13.902;2024-02-21T00:45:23;101806.84;;;18.69;43.82
84932;BME280;75193;53.980;13.902;2024-02-21T00:47:49;101807.78;;;17.93;45.28
84932;BME280;75193;53.980;13.902;2024-02-21T00:50:14;101803.53;;;18.16;45.26
84932;BME280;75193;53.980;13.902;2024-02-21T00:52:40;101798.47;;;18.13;45.38
84932;BME280;75193;53.980;13.902;2024-02-21T00:55:06;101785.88;;;18.04;45.32
84932;BME280;75193;53.980;13.902;2024-02-21T00:57:32;101796.50;;;18.40;44.71
84932;BME280;75193;53.980;13.902;2024-02-21T00:59:57;101782.50;;;17.89;45.64
84932;BME280;75193;53.980;13.902;2024-02-21T01:02:23;101779.00;;;18.14;45.04
84932;BME280;75193;53.980;13.902;2024-02-21T01:04:48;101776.44;;;18.00;45.54
84932;BME280;75193;53.980;13.902;2024-02-21T01:07:14;101774.44;;;17.78;45.55
84932;BME280;75193;53.980;13.902;2024-02-21T01:09:39;101766.00;;;17.85;45.57
84932;BME280;75193;53.980;13.902;2024-02-21T01:12:05;101762.59;;;18.09;45.18
84932;BME280;75193;53.980;13.902;2024-02-21T01:14:30;101754.38;;;18.37;44.88
84932;BME280;75193;53.980;13.902;2024-02-21T01:16:56;101748.81;;;18.29;45.16
84932;BME280;75193;53.980;13.902;2024-02-21T01:19:22;101746.31;;;18.52;44.51
84932;BME280;75193;53.980;13.902;2024-02-21T01:21:47;101747.28;;;17.76;46.24
84932;BME280;75193;53.980;13.902;2024-02-21T01:24:12;101745.16;;;17.94;46.25
84932;BME280;75193;53.980;13.902;2024-02-21T01:26:40;101740.03;;;18.16;45.95
84932;BME280;75193;53.980;13.902;2024-02-21T01:29:06;101736.06;;;17.85;46.79
84932;BME280;75193;53.980;13.902;2024-02-21T01:31:31;101729.28;;;17.81;46.68
84932;BME280;75193;53.980;13.902;2024-02-21T01:33:57;101722.25;;;18.18;45.91
84932;BME280;75193;53.980;13.902;2024-02-21T01:36:23;101718.63;;;18.32;46.26
84932;BME280;75193;53.980;13.902;2024-02-21T01:38:48;101715.50;;;18.01;46.74
84932;BME280;75193;53.980;13.902;2024-02-21T01:41:14;101713.34;;;18.19;46.13
84932;BME280;75193;53.980;13.902;2024-02-21T01:43:39;101710.81;;;18.17;46.04
84932;BME280;75193;53.980;13.902;2024-02-21T01:46:05;101707.09;;;18.20;46.25
84932;BME280;75193;53.980;13.902;2024-02-21T01:48:31;101706.88;;;17.87;46.80
84932;BME280;75193;53.980;13.902;2024-02-21T01:50:56;101715.72;;;17.98;46.82
84932;BME280;75193;53.980;13.902;2024-02-21T01:53:30;101697.22;;;17.98;46.87
84932;BME280;75193;53.980;13.902;2024-02-21T01:55:56;101697.19;;;18.11;47.04
84932;BME280;75193;53.980;13.902;2024-02-21T01:58:21;101694.66;;;18.46;45.76
84932;BME280;75193;53.980;13.902;2024-02-21T02:00:48;101691.59;;;18.03;47.02
84932;BME280;75193;53.980;13.902;2024-02-21T02:03:14;101684.09;;;18.33;46.32
84932;BME280;75193;53.980;13.902;2024-02-21T02:05:46;101674.41;;;18.21;46.86
84932;BME280;75193;53.980;13.902;2024-02-21T02:08:16;101671.81;;;18.32;46.51
84932;BME280;75193;53.980;13.902;2024-02-21T02:10:42;101668.44;;;18.30;46.06
84932;BME280;75193;53.980;13.902;2024-02-21T02:13:08;101654.00;;;18.23;46.78
84932;BME280;75193;53.980;13.902;2024-02-21T02:15:44;101655.59;;;18.13;47.16
84932;BME280;75193;53.980;13.902;2024-02-21T02:18:10;101659.56;;;18.31;46.59
84932;BME280;75193;53.980;13.902;2024-02-21T02:20:36;101652.59;;;18.17;46.99
84932;BME280;75193;53.980;13.902;2024-02-21T02:23:11;101645.38;;;17.96;47.58
84932;BME280;75193;53.980;13.902;2024-02-21T02:25:38;101651.34;;;18.47;46.17
84932;BME280;75193;53.980;13.902;2024-02-21T02:28:06;101643.53;;;18.57;46.23
84932;BME280;75193;53.980;13.902;2024-02-21T02:30:32;101638.88;;;18.36;46.61
84932;BME280;75193;53.980;13.902;2024-02-21T02:32:59;101638.38;;;18.55;46.63
84932;BME280;75193;53.980;13.902;2024-02-21T02:35:25;101633.84;;;17.97;47.28
84932;BME280;75193;53.980;13.902;2024-02-21T02:37:50;101627.06;;;18.05;47.53
84932;BME280;75193;53.980;13.902;2024-02-21T02:40:17;101617.19;;;18.55;46.38
84932;BME280;75193;53.980;13.902;2024-02-21T02:42:43;101614.63;;;18.42;46.86
84932;BME280;75193;53.980;13.902;2024-02-21T02:45:09;101615.28;;;17.85;47.79
84932;BME280;75193;53.980;13.902;2024-02-21T02:47:35;101605.16;;;18.51;46.46
84932;BME280;75193;53.980;13.902;2024-02-21T02:50:01;101604.59;;;18.35;47.02
84932;BME280;75193;53.980;13.902;2024-02-21T02:52:26;101597.31;;;18.50;46.54
84932;BME280;75193;53.980;13.902;2024-02-21T02:54:52;101597.31;;;18.50;46.67
84932;BME280;75193;53.980;13.902;2024-02-21T02:57:20;101585.88;;;18.73;46.02
84932;BME280;75193;53.980;13.902;2024-02-21T02:59:50;101578.13;;;18.35;46.70
84932;BME280;75193;53.980;13.902;2024-02-21T03:02:16;101579.81;;;18.36;46.73
84932;BME280;75193;53.980;13.902;2024-02-21T03:04:43;101569.72;;;18.06;47.24
84932;BME280;75193;53.980;13.902;2024-02-21T03:07:09;101569.13;;;17.90;47.90
84932;BME280;75193;53.980;13.902;2024-02-21T03:09:39;101564.09;;;18.22;47.29
84932;BME280;75193;53.980;13.902;2024-02-21T03:12:05;101569.81;;;18.04;47.77
84932;BME280;75193;53.980;13.902;2024-02-21T03:14:32;101561.03;;;18.28;46.69
84932;BME280;75193;53.980;13.902;2024-02-21T03:16:58;101556.03;;;18.71;46.11
84932;BME280;75193;53.980;13.902;2024-02-21T03:19:24;101547.06;;;18.26;47.44
84932;BME280;75193;53.980;13.902;2024-02-21T03:21:51;101538.69;;;18.67;45.96
84932;BME280;75193;53.980;13.902;2024-02-21T03:24:17;101545.09;;;17.93;47.95
84932;BME280;75193;53.980;13.902;2024-02-21T03:26:42;101537.13;;;18.40;46.88
84932;BME280;75193;53.980;13.902;2024-02-21T03:29:08;101535.06;;;18.33;46.74
84932;BME280;75193;53.980;13.902;2024-02-21T03:31:37;101525.91;;;18.37;46.98
84932;BME280;75193;53.980;13.902;2024-02-21T03:34:02;101518.56;;;18.29;46.96
84932;BME280;75193;53.980;13.902;2024-02-21T03:36:28;101521.03;;;18.08;47.61
84932;BME280;75193;53.980;13.902;2024-02-21T03:38:54;101520.59;;;18.02;47.96
84932;BME280;75193;53.980;13.902;2024-02-21T03:41:20;101504.84;;;17.27;49.25
84932;BME280;75193;53.980;13.902;2024-02-21T03:43:46;101509.53;;;17.60;48.59
84932;BME280;75193;53.980;13.902;2024-02-21T03:46:11;101505.09;;;17.97;48.53
84932;BME280;75193;53.980;13.902;2024-02-21T03:48:37;101512.53;;;17.68;48.50
84932;BME280;75193;53.980;13.902;2024-02-21T03:51:02;101501.59;;;17.97;47.83
84932;BME280;75193;53.980;13.902;2024-02-21T03:53:28;101493.97;;;18.16;47.37
84932;BME280;75193;53.980;13.902;2024-02-21T03:55:54;101495.59;;;17.58;48.78
84932;BME280;75193;53.980;13.902;2024-02-21T03:58:20;101498.56;;;17.90;48.00
84932;BME280;75193;53.980;13.902;2024-02-21T04:00:46;101489.81;;;18.25;46.97
84932;BME280;75193;53.980;13.902;2024-02-21T04:03:11;101490.97;;;18.44;46.43
84932;BME280;75193;53.980;13.902;2024-02-21T04:05:37;101477.72;;;18.44;47.16
84932;BME280;75193;53.980;13.902;2024-02-21T04:08:05;101467.00;;;17.76;48.55
84932;BME280;75193;53.980;13.902;2024-02-21T04:10:31;101465.00;;;18.14;47.26
84932;BME280;75193;53.980;13.902;2024-02-21T04:12:57;101459.41;;;17.95;47.64
84932;BME280;75193;53.980;13.902;2024-02-21T04:15:23;101453.63;;;18.01;47.51
84932;BME280;75193;53.980;13.902;2024-02-21T04:17:48;101446.63;;;18.24;47.61
84932;BME280;75193;53.980;13.902;2024-02-21T04:20:15;101454.38;;;18.50;46.81
84932;BME280;75193;53.980;13.902;2024-02-21T04:22:43;101450.28;;;17.99;48.10
84932;BME280;75193;53.980;13.902;2024-02-21T04:25:10;101447.06;;;17.83;48.37
84932;BME280;75193;53.980;13.902;2024-02-21T04:27:39;101456.81;;;18.17;47.79
84932;BME280;75193;53.980;13.902;2024-02-21T04:30:06;101451.94;;;18.35;47.04
84932;BME280;75193;53.980;13.902;2024-02-21T04:32:32;101444.22;;;18.67;46.72
84932;BME280;75193;53.980;13.902;2024-02-21T04:34:58;101446.28;;;18.40;47.22
84932;BME280;75193;53.980;13.902;2024-02-21T04:37:23;101450.25;;;18.23;47.29
84932;BME280;75193;53.980;13.902;2024-02-21T04:39:49;101446.88;;;18.79;46.44
84932;BME280;75193;53.980;13.902;2024-02-21T04:42:15;101452.06;;;18.34;46.84
84932;BME280;75193;53.980;13.902;2024-02-21T04:44:41;101450.38;;;18.79;46.28
84932;BME280;75193;53.980;13.902;2024-02-21T04:47:06;101436.13;;;18.69;46.23
84932;BME280;75193;53.980;13.902;2024-02-21T04:49:32;101445.91;;;19.02;45.56
84932;BME280;75193;53.980;13.902;2024-02-21T04:51:58;101434.69;;;18.87;46.07
84932;BME280;75193;53.980;13.902;2024-02-21T04:54:24;101426.34;;;18.58;46.56
84932;BME280;75193;53.980;13.902;2024-02-21T04:56:50;101421.09;;;18.69;46.41
84932;BME280;75193;53.980;13.902;2024-02-21T04:59:15;101420.97;;;18.82;46.15
84932;BME280;75193;53.980;13.902;2024-02-21T05:01:41;101414.34;;;18.65;46.74
84932;BME280;75193;53.980;13.902;2024-02-21T05:04:06;101407.06;;;18.23;47.63
84932;BME280;75193;53.980;13.902;2024-02-21T05:06:39;101413.81;;;17.44;49.16
84932;BME280;75193;53.980;13.902;2024-02-21T05:09:06;101413.81;;;17.92;48.56
84932;BME280;75193;53.980;13.902;2024-02-21T05:11:31;101405.78;;;18.62;47.15
84932;BME280;75193;53.980;13.902;2024-02-21T05:13:57;101401.44;;;18.50;46.98
84932;BME280;75193;53.980;13.902;2024-02-21T05:16:22;101409.13;;;18.53;46.98
84932;BME280;75193;53.980;13.902;2024-02-21T05:18:48;101405.16;;;18.58;47.36
84932;BME280;75193;53.980;13.902;2024-02-21T05:21:13;101401.03;;;18.09;47.92
84932;BME280;75193;53.980;13.902;2024-02-21T05:23:39;101410.44;;;18.58;46.93
84932;BME280;75193;53.980;13.902;2024-02-21T05:26:05;101412.66;;;18.75;46.69
84932;BME280;75193;53.980;13.902;2024-02-21T05:28:31;101411.03;;;18.28;47.68
84932;BME280;75193;53.980;13.902;2024-02-21T05:30:57;101411.97;;;18.16;48.05
84932;BME280;75193;53.980;13.902;2024-02-21T05:33:23;101411.25;;;18.14;48.36
84932;BME280;75193;53.980;13.902;2024-02-21T05:35:49;101405.66;;;18.52;47.45
84932;BME280;75193;53.980;13.902;2024-02-21T05:38:15;101402.66;;;18.45;47.78
84932;BME280;75193;53.980;13.902;2024-02-21T05:40:41;101401.91;;;18.32;48.65
84932;BME280;75193;53.980;13.902;2024-02-21T05:43:09;101398.56;;;18.53;47.78
84932;BME280;75193;53.980;13.902;2024-02-21T05:45:35;101404.81;;;18.52;47.97
84932;BME280;75193;53.980;13.902;2024-02-21T05:48:00;101394.44;;;18.37;48.53
84932;BME280;75193;53.980;13.902;2024-02-21T05:50:26;101395.09;;;18.63;47.89
84932;BME280;75193;53.980;13.902;2024-02-21T05:52:55;101397.13;;;18.02;48.89
84932;BME280;75193;53.980;13.902;2024-02-21T05:55:21;101392.72;;;18.14;48.87
84932;BME280;75193;53.980;13.902;2024-02-21T05:57:46;101391.47;;;18.42;48.49
84932;BME280;75193;53.980;13.902;2024-02-21T06:00:13;101388.91;;;18.52;47.91
84932;BME280;75193;53.980;13.902;2024-02-21T06:02:38;101397.72;;;17.95;49.21
84932;BME280;75193;53.980;13.902;2024-02-21T06:05:05;101383.06;;;18.82;47.69
84932;BME280;75193;53.980;13.902;2024-02-21T06:07:33;101383.47;;;17.73;49.57
84932;BME280;75193;53.980;13.902;2024-02-21T06:09:59;101391.59;;;17.94;49.05
84932;BME280;75193;53.980;13.902;2024-02-21T06:12:25;101387.03;;;18.65;48.26
84932;BME280;75193;53.980;13.902;2024-02-21T06:14:50;101379.69;;;18.80;47.72
84932;BME280;75193;53.980;13.902;2024-02-21T06:17:16;101384.97;;;18.91;47.64
84932;BME280;75193;53.980;13.902;2024-02-21T06:19:43;101379.97;;;18.19;49.10
84932;BME280;75193;53.980;13.902;2024-02-21T06:22:08;101374.69;;;18.19;49.51
84932;BME280;75193;53.980;13.902;2024-02-21T06:24:35;101381.41;;;18.12;49.43
84932;BME280;75193;53.980;13.902;2024-02-21T06:27:01;101372.16;;;18.06;49.23
84932;BME280;75193;53.980;13.902;2024-02-21T06:29:27;101374.59;;;18.32;49.19
84932;BME280;75193;53.980;13.902;2024-02-21T06:31:52;101375.09;;;18.48;48.39
84932;BME280;75193;53.980;13.902;2024-02-21T06:34:18;101364.41;;;18.83;48.11
84932;BME280;75193;53.980;13.902;2024-02-21T06:36:44;101364.25;;;18.40;48.75
84932;BME280;75193;53.980;13.902;2024-02-21T06:39:10;101364.25;;;18.29;49.44
84932;BME280;75193;53.980;13.902;2024-02-21T06:41:37;101355.72;;;18.36;49.30
84932;BME280;75193;53.980;13.902;2024-02-21T06:44:03;101351.41;;;18.69;48.51
84932;BME280;75193;53.980;13.902;2024-02-21T06:46:29;101351.22;;;18.03;49.63
84932;BME280;75193;53.980;13.902;2024-02-21T06:48:55;101353.31;;;18.33;48.99
84932;BME280;75193;53.980;13.902;2024-02-21T06:51:24;101347.66;;;18.60;48.71
84932;BME280;75193;53.980;13.902;2024-02-21T06:53:53;101347.41;;;18.30;49.34
84932;BME280;75193;53.980;13.902;2024-02-21T06:56:19;101348.72;;;18.35;49.33
84932;BME280;75193;53.980;13.902;2024-02-21T06:58:45;101354.03;;;18.35;49.77
84932;BME280;75193;53.980;13.902;2024-02-21T07:01:10;101341.06;;;18.66;48.76
84932;BME280;75193;53.980;13.902;2024-02-21T07:03:36;101338.41;;;18.43;49.15
84932;BME280;75193;53.980;13.902;2024-02-21T07:06:02;101340.91;;;18.34;49.50
84932;BME280;75193;53.980;13.902;2024-02-21T07:08:28;101338.38;;;18.32;49.37
84932;BME280;75193;53.980;13.902;2024-02-21T07:10:53;101343.78;;;18.20;49.94
84932;BME280;75193;53.980;13.902;2024-02-21T07:13:19;101335.28;;;18.72;49.02
84932;BME280;75193;53.980;13.902;2024-02-21T07:15:45;101334.88;;;18.88;48.75
84932;BME280;75193;53.980;13.902;2024-02-21T07:18:11;101329.63;;;18.43;49.47
84932;BME280;75193;53.980;13.902;2024-02-21T07:20:36;101334.78;;;18.44;49.87
84932;BME280;75193;53.980;13.902;2024-02-21T07:23:02;101339.66;;;17.93;50.50
84932;BME280;75193;53.980;13.902;2024-02-21T07:25:28;101342.16;;;18.63;48.71
84932;BME280;75193;53.980;13.902;2024-02-21T07:27:53;101344.88;;;18.51;49.90
84932;BME280;75193;53.980;13.902;2024-02-21T07:30:19;101343.66;;;18.10;50.84
84932;BME280;75193;53.980;13.902;2024-02-21T07:32:44;101331.56;;;18.63;49.42
84932;BME280;75193;53.980;13.902;2024-02-21T07:35:10;101341.63;;;18.58;49.34
84932;BME280;75193;53.980;13.902;2024-02-21T07:37:37;101343.31;;;18.14;50.70
84932;BME280;75193;53.980;13.902;2024-02-21T07:40:06;101332.84;;;18.58;49.58
84932;BME280;75193;53.980;13.902;2024-02-21T07:42:32;101330.94;;;18.60;49.59
84932;BME280;75193;53.980;13.902;2024-02-21T07:44:58;101345.16;;;18.70;49.89
84932;BME280;75193;53.980;13.902;2024-02-21T07:47:23;101336.50;;;19.11;48.43
84932;BME280;75193;53.980;13.902;2024-02-21T07:49:49;101346.81;;;18.60;49.94
84932;BME280;75193;53.980;13.902;2024-02-21T07:52:15;101349.72;;;18.79;49.42
84932;BME280;75193;53.980;13.902;2024-02-21T07:54:40;101349.78;;;19.43;47.84
84932;BME280;75193;53.980;13.902;2024-02-21T07:57:09;101348.56;;;19.15;48.64
84932;BME280;75193;53.980;13.902;2024-02-21T07:59:34;101345.69;;;19.07;48.84
84932;BME280;75193;53.980;13.902;2024-02-21T08:02:00;101347.16;;;18.89;49.02
84932;BME280;75193;53.980;13.902;2024-02-21T08:04:26;101333.09;;;18.88;49.31
84932;BME280;75193;53.980;13.902;2024-02-21T08:06:54;101330.03;;;19.04;49.01
84932;BME280;75193;53.980;13.902;2024-02-21T08:09:24;101317.56;;;18.16;50.33
84932;BME280;75193;53.980;13.902;2024-02-21T08:11:50;101319.47;;;18.59;49.99
84932;BME280;75193;53.980;13.902;2024-02-21T08:14:15;101327.84;;;19.09;48.93
84932;BME280;75193;53.980;13.902;2024-02-21T08:16:41;101319.34;;;19.38;48.43
84932;BME280;75193;53.980;13.902;2024-02-21T08:19:07;101316.56;;;18.96;49.25
84932;BME280;75193;53.980;13.902;2024-02-21T08:21:32;101318.34;;;19.71;47.96
84932;BME280;75193;53.980;13.902;2024-02-21T08:23:58;101317.22;;;19.20;48.58
84932;BME280;75193;53.980;13.902;2024-02-21T08:26:23;101322.28;;;19.12;48.96
84932;BME280;75193;53.980;13.902;2024-02-21T08:28:49;101318.69;;;19.77;47.90
84932;BME280;75193;53.980;13.902;2024-02-21T08:31:21;101317.19;;;19.63;48.08
84932;BME280;75193;53.980;13.902;2024-02-21T08:33:48;101323.28;;;19.43;48.68
84932;BME280;75193;53.980;13.902;2024-02-21T08:36:17;101330.09;;;18.70;49.55
84932;BME280;75193;53.980;13.902;2024-02-21T08:38:44;101330.66;;;19.92;46.98
84932;BME280;75193;53.980;13.902;2024-02-21T08:41:32;101333.59;;;19.14;48.74
84932;BME280;75193;53.980;13.902;2024-02-21T08:43:58;101327.03;;;19.41;48.40
84932;BME280;75193;53.980;13.902;2024-02-21T08:46:23;101335.09;;;19.39;48.26
84932;BME280;75193;53.980;13.902;2024-02-21T08:48:53;101332.34;;;19.73;47.62
84932;BME280;75193;53.980;13.902;2024-02-21T08:51:19;101328.88;;;20.03;47.19
84932;BME280;75193;53.980;13.902;2024-02-21T08:53:45;101334.13;;;20.44;46.42
84932;BME280;75193;53.980;13.902;2024-02-21T08:56:10;101342.38;;;20.20;46.86
84932;BME280;75193;53.980;13.902;2024-02-21T08:58:36;101339.72;;;20.41;46.28
84932;BME280;75193;53.980;13.902;2024-02-21T09:01:03;101337.09;;;21.01;45.68
84932;BME280;75193;53.980;13.902;2024-02-21T09:03:32;101352.91;;;20.52;46.42
84932;BME280;75193;53.980;13.902;2024-02-21T09:05:58;101347.31;;;20.96;45.53
84932;BME280;75193;53.980;13.902;2024-02-21T09:08:24;101352.16;;;20.71;45.79
84932;BME280;75193;53.980;13.902;2024-02-21T09:10:50;101345.91;;;20.92;45.41
84932;BME280;75193;53.980;13.902;2024-02-21T09:13:15;101350.22;;;20.83;44.98
84932;BME280;75193;53.980;13.902;2024-02-21T09:15:42;101345.50;;;20.56;45.04
84932;BME280;75193;53.980;13.902;2024-02-21T09:18:08;101346.28;;;20.77;45.46
84932;BME280;75193;53.980;13.902;2024-02-21T09:20:33;101351.97;;;21.03;44.99
84932;BME280;75193;53.980;13.902;2024-02-21T09:22:59;101337.41;;;20.06;46.83
84932;BME280;75193;53.980;13.902;2024-02-21T09:25:24;101341.00;;;20.97;45.15
84932;BME280;75193;53.980;13.902;2024-02-21T09:27:50;101341.09;;;20.66;46.08
84932;BME280;75193;53.980;13.902;2024-02-21T09:30:17;101354.19;;;20.27;46.63
84932;BME280;75193;53.980;13.902;2024-02-21T09:32:43;101330.03;;;21.30;44.55
84932;BME280;75193;53.980;13.902;2024-02-21T09:35:08;101334.41;;;20.41;45.71
84932;BME280;75193;53.980;13.902;2024-02-21T09:37:34;101331.88;;;20.70;45.45
84932;BME280;75193;53.980;13.902;2024-02-21T09:39:59;101326.03;;;20.86;44.96
84932;BME280;75193;53.980;13.902;2024-02-21T09:42:40;101319.03;;;20.45;46.17
84932;BME280;75193;53.980;13.902;2024-02-21T09:45:19;101325.09;;;20.56;45.53
84932;BME280;75193;53.980;13.902;2024-02-21T09:50:24;101323.56;;;20.54;45.59
84932;BME280;75193;53.980;13.902;2024-02-21T09:52:51;101317.88;;;20.68;45.24
84932;BME280;75193;53.980;13.902;2024-02-21T09:55:17;101327.56;;;20.18;46.25
84932;BME280;75193;53.980;13.902;2024-02-21T09:57:44;101324.69;;;21.01;44.27
84932;BME280;75193;53.980;13.902;2024-02-21T10:00:10;101330.84;;;20.52;45.36
84932;BME280;75193;53.980;13.902;2024-02-21T10:02:35;101336.53;;;20.97;44.35
84932;BME280;75193;53.980;13.902;2024-02-21T10:05:02;101334.06;;;20.04;46.45
84932;BME280;75193;53.980;13.902;2024-02-21T10:07:30;101340.03;;;20.98;44.31
84932;BME280;75193;53.980;13.902;2024-02-21T10:10:03;101340.25;;;21.25;44.55
84932;BME280;75193;53.980;13.902;2024-02-21T10:12:28;101339.56;;;20.73;45.00
84932;BME280;75193;53.980;13.902;2024-02-21T10:15:04;101337.66;;;20.95;44.85
84932;BME280;75193;53.980;13.902;2024-02-21T10:17:32;101329.97;;;20.92;44.74
84932;BME280;75193;53.980;13.902;2024-02-21T10:20:10;101315.31;;;21.74;43.30
84932;BME280;75193;53.980;13.902;2024-02-21T10:22:37;101324.16;;;21.65;44.42
84932;BME280;75193;53.980;13.902;2024-02-21T10:25:14;101324.59;;;21.61;44.46
84932;BME280;75193;53.980;13.902;2024-02-21T10:27:40;101337.47;;;21.46;44.43
84932;BME280;75193;53.980;13.902;2024-02-21T10:30:12;101331.56;;;21.33;44.35
84932;BME280;75193;53.980;13.902;2024-02-21T10:32:51;101330.09;;;22.16;42.11
84932;BME280;75193;53.980;13.902;2024-02-21T10:35:30;101320.91;;;21.81;42.60
84932;BME280;75193;53.980;13.902;2024-02-21T10:37:57;101337.72;;;21.72;42.68
84932;BME280;75193;53.980;13.902;2024-02-21T10:40:27;101316.19;;;22.31;42.02
84932;BME280;75193;53.980;13.902;2024-02-21T10:42:58;101321.75;;;21.14;44.11
84932;BME280;75193;53.980;13.902;2024-02-21T10:45:34;101320.63;;;21.74;42.70
84932;BME280;75193;53.980;13.902;2024-02-21T10:48:14;101319.44;;;20.80;44.28
84932;BME280;75193;53.980;13.902;2024-02-21T10:54:02;101308.22;;;20.27;44.30
84932;BME280;75193;53.980;13.902;2024-02-21T10:56:34;101301.50;;;20.63;43.45
84932;BME280;75193;53.980;13.902;2024-02-21T10:59:03;101299.97;;;20.30;44.06
84932;BME280;75193;53.980;13.902;2024-02-21T11:01:29;101303.94;;;20.15;44.37
84932;BME280;75193;53.980;13.902;2024-02-21T11:04:03;101299.38;;;19.96;45.39
84932;BME280;75193;53.980;13.902;2024-02-21T11:06:30;101297.47;;;20.08;45.36
84932;BME280;75193;53.980;13.902;2024-02-21T11:09:14;101293.72;;;20.71;44.63
84932;BME280;75193;53.980;13.902;2024-02-21T11:11:40;101299.69;;;20.03;45.56
84932;BME280;75193;53.980;13.902;2024-02-21T11:14:20;101285.97;;;20.59;44.60
84932;BME280;75193;53.980;13.902;2024-02-21T11:16:46;101279.13;;;20.46;44.65
84932;BME280;75193;53.980;13.902;2024-02-21T11:19:34;101275.47;;;21.45;43.30
84932;BME280;75193;53.980;13.902;2024-02-21T11:22:00;101260.56;;;20.66;43.63
84932;BME280;75193;53.980;13.902;2024-02-21T11:24:30;101267.38;;;20.59;44.74
84932;BME280;75193;53.980;13.902;2024-02-21T11:27:08;101273.88;;;20.85;43.12
84932;BME280;75193;53.980;13.902;2024-02-21T11:29:43;101259.84;;;20.54;43.10
84932;BME280;75193;53.980;13.902;2024-02-21T11:32:15;101256.41;;;19.72;43.31
84932;BME280;75193;53.980;13.902;2024-02-21T11:34:52;101251.41;;;20.09;42.08
84932;BME280;75193;53.980;13.902;2024-02-21T11:37:17;101254.59;;;19.72;42.36
84932;BME280;75193;53.980;13.902;2024-02-21T11:39:43;101256.44;;;20.42;41.38
84932;BME280;75193;53.980;13.902;2024-02-21T11:42:09;101252.06;;;20.01;41.72
84932;BME280;75193;53.980;13.902;2024-02-21T11:44:36;101251.50;;;19.98;42.28
84932;BME280;75193;53.980;13.902;2024-02-21T11:47:06;101253.13;;;20.19;41.28
84932;BME280;75193;53.980;13.902;2024-02-21T11:49:37;101255.13;;;19.96;41.42
84932;BME280;75193;53.980;13.902;2024-02-21T11:52:04;101256.00;;;20.07;41.23
84932;BME280;75193;53.980;13.902;2024-02-21T11:54:33;101254.56;;;20.33;41.29
84932;BME280;75193;53.980;13.902;2024-02-21T11:56:59;101248.88;;;19.77;42.16
84932;BME280;75193;53.980;13.902;2024-02-21T11:59:25;101238.63;;;19.51;42.29
84932;BME280;75193;53.980;13.902;2024-02-21T12:01:52;101239.13;;;19.77;41.29
84932;BME280;75193;53.980;13.902;2024-02-21T12:04:21;101229.69;;;19.11;41.24
84932;BME280;75193;53.980;13.902;2024-02-21T12:06:49;101235.13;;;19.09;40.83
84932;BME280;75193;53.980;13.902;2024-02-21T12:09:15;101222.97;;;19.48;40.52
84932;BME280;75193;53.980;13.902;2024-02-21T12:11:41;101227.72;;;19.45;40.48
84932;BME280;75193;53.980;13.902;2024-02-21T12:14:07;101219.59;;;19.57;40.42
84932;BME280;75193;53.980;13.902;2024-02-21T12:16:34;101227.81;;;19.85;39.97
84932;BME280;75193;53.980;13.902;2024-02-21T12:19:02;101217.84;;;18.94;40.39
84932;BME280;75193;53.980;13.902;2024-02-21T12:21:33;101216.00;;;19.47;40.55
84932;BME280;75193;53.980;13.902;2024-02-21T12:24:00;101222.03;;;20.31;39.21
84932;BME280;75193;53.980;13.902;2024-02-21T12:26:26;101216.34;;;19.75;40.02
84932;BME280;75193;53.980;13.902;2024-02-21T12:28:53;101216.41;;;19.43;39.69
84932;BME280;75193;53.980;13.902;2024-02-21T12:31:20;101219.66;;;19.98;39.33
84932;BME280;75193;53.980;13.902;2024-02-21T12:33:46;101209.94;;;19.77;39.42
84932;BME280;75193;53.980;13.902;2024-02-21T12:36:12;101211.34;;;20.21;38.93
84932;BME280;75193;53.980;13.902;2024-02-21T12:38:37;101202.94;;;20.47;38.46
84932;BME280;75193;53.980;13.902;2024-02-21T12:41:03;101203.78;;;20.47;39.00
84932;BME280;75193;53.980;13.902;2024-02-21T12:43:29;101207.59;;;19.84;40.27
84932;BME280;75193;53.980;13.902;2024-02-21T12:45:54;101203.22;;;20.63;38.73